createdAt,value
2022-08-07T00:03:00.214Z,48
2022-08-07T00:13:01.718Z,48
2022-08-07T00:23:00.201Z,48
2022-08-07T00:33:00.321Z,48
2022-08-07T00:43:00.222Z,48
2022-08-07T00:53:00.337Z,49.5
2022-08-07T01:03:00.206Z,48.5
2022-08-07T01:13:00.316Z,48.5
2022-08-07T01:23:00.699Z,48.5
2022-08-07T01:33:00.310Z,50
2022-08-07T01:43:00.215Z,48.5
2022-08-07T01:53:00.340Z,48.5
2022-08-07T02:03:12.831Z,48.5
2022-08-07T02:13:00.312Z,48.5
2022-08-07T02:23:00.414Z,48.5
2022-08-07T02:33:07.338Z,48.5
2022-08-07T02:43:00.411Z,48.5
2022-08-07T02:53:00.985Z,48.5
2022-08-07T03:03:00.390Z,48.5
2022-08-07T03:13:00.301Z,48.5
2022-08-07T03:23:00.399Z,48.5
2022-08-07T03:33:00.925Z,48.5
2022-08-07T03:43:00.562Z,48.5
2022-08-07T03:53:00.494Z,48.5
2022-08-07T04:03:03.707Z,48.5
2022-08-07T04:13:00.480Z,48.5
2022-08-07T04:23:01.204Z,48.5
2022-08-07T04:33:00.488Z,48.5
2022-08-07T04:43:01.160Z,48.5
2022-08-07T04:53:00.481Z,48.5
2022-08-07T05:03:00.595Z,48.5
2022-08-07T05:13:10.171Z,48.5
2022-08-07T05:23:00.590Z,48.5
2022-08-07T05:33:00.483Z,48.5
2022-08-07T05:43:00.576Z,48.5
2022-08-07T05:53:00.476Z,48.5
2022-08-07T06:03:00.730Z,46.5
2022-08-07T06:13:00.502Z,46.5
2022-08-07T06:23:02.050Z,45.5
2022-08-07T06:33:00.673Z,46
2022-08-07T06:43:00.575Z,46
2022-08-07T06:53:00.662Z,43
2022-08-07T07:03:01.083Z,40.5
2022-08-07T07:13:00.667Z,40
2022-08-07T07:24:05.295Z,43
2022-08-07T07:33:00.699Z,43
2022-08-07T07:43:11.541Z,38.5
2022-08-07T07:53:00.783Z,34.5
2022-08-07T08:03:01.430Z,37
2022-08-07T08:13:00.663Z,34.5
2022-08-07T08:23:00.767Z,31.5
2022-08-07T08:33:00.688Z,35
2022-08-07T08:43:00.759Z,30.5
2022-08-07T08:53:00.656Z,30.5
2022-08-07T09:03:01.013Z,28.5
2022-08-07T09:13:00.878Z,31.5
2022-08-07T09:24:29.977Z,33
2022-08-07T09:33:01.324Z,33
2022-08-07T09:43:00.797Z,35.5
2022-08-07T09:53:00.901Z,34.5
2022-08-07T10:03:03.851Z,32
2022-08-07T10:13:00.855Z,32
2022-08-07T10:23:00.741Z,42
2022-08-07T10:33:00.883Z,43
2022-08-07T10:43:00.772Z,44
2022-08-07T10:53:05.333Z,42.5
2022-08-07T11:03:01.108Z,44
2022-08-07T11:13:01.501Z,44
2022-08-07T11:23:01.487Z,44
2022-08-07T11:33:00.823Z,44
2022-08-07T11:43:01.715Z,44
2022-08-07T11:53:00.837Z,44
2022-08-07T12:03:00.962Z,44
2022-08-07T12:13:01.028Z,44
2022-08-07T12:23:00.914Z,44
2022-08-07T12:33:01.011Z,44
2022-08-07T12:43:00.924Z,44
2022-08-07T12:53:01.014Z,44
2022-08-07T13:03:00.902Z,44
2022-08-07T13:13:01.038Z,44
2022-08-07T13:23:03.901Z,44
2022-08-07T13:33:01.009Z,44
2022-08-07T13:43:01.097Z,44
2022-08-07T13:53:00.994Z,44
2022-08-07T14:03:01.102Z,44
2022-08-07T14:13:01.010Z,44
2022-08-07T14:23:01.602Z,45
2022-08-07T14:33:01.007Z,44.5
2022-08-07T14:43:54.993Z,44.5
2022-08-07T14:53:06.482Z,45.5
2022-08-07T15:03:15.784Z,45
2022-08-07T15:13:01.043Z,46
2022-08-07T15:23:01.134Z,44.5
2022-08-07T15:33:01.707Z,44.5
2022-08-07T15:43:01.231Z,44.5
2022-08-07T15:53:02.404Z,45
2022-08-07T16:03:01.145Z,44.5
2022-08-07T16:13:04.928Z,44.5
2022-08-07T16:23:05.171Z,44.5
2022-08-07T16:34:01.220Z,46
2022-08-07T16:43:01.134Z,46
2022-08-07T16:53:10.040Z,46
2022-08-07T17:03:04.744Z,45
2022-08-07T17:13:01.240Z,45.5
2022-08-07T17:23:01.314Z,46
2022-08-07T17:33:01.255Z,45.5
2022-08-07T17:43:01.456Z,46
2022-08-07T17:53:01.199Z,46
2022-08-07T18:03:01.306Z,46
2022-08-07T18:13:01.221Z,46
2022-08-07T18:23:01.329Z,46
2022-08-07T18:33:10.681Z,46
2022-08-07T18:43:01.313Z,46
2022-08-07T18:53:04.916Z,46
2022-08-07T19:03:01.372Z,46
2022-08-07T19:13:10.479Z,46
2022-08-07T19:23:04.877Z,46
2022-08-07T19:33:01.716Z,46
2022-08-07T19:43:01.288Z,46
2022-08-07T19:53:01.394Z,46
2022-08-07T20:03:01.634Z,47.5
2022-08-07T20:13:01.624Z,47
2022-08-07T20:23:01.491Z,46.5
2022-08-07T20:33:01.408Z,46.5
2022-08-07T20:43:01.535Z,46.5
2022-08-07T20:53:01.415Z,46.5
2022-08-07T21:03:01.611Z,48
2022-08-07T21:13:01.428Z,48
2022-08-07T21:23:07.560Z,48
2022-08-07T21:33:01.430Z,48
2022-08-07T21:43:01.541Z,48
2022-08-07T21:53:07.903Z,48
2022-08-07T22:03:01.937Z,48
2022-08-07T22:13:01.475Z,48
2022-08-07T22:23:01.575Z,48
2022-08-07T22:33:01.471Z,48
2022-08-07T22:43:01.570Z,48
2022-08-07T22:53:01.472Z,48
2022-08-07T23:03:01.647Z,48
2022-08-07T23:13:01.783Z,48
2022-08-07T23:23:01.591Z,48
2022-08-07T23:34:20.569Z,48
2022-08-07T23:43:01.578Z,48
2022-08-07T23:53:05.353Z,48
